createdAt,value
2019-05-01T00:00:31.460Z,8.40
2019-05-01T00:03:23.089Z,8.40
2019-05-01T00:05:56.201Z,8.40
2019-05-01T00:08:25.901Z,8.40
2019-05-01T00:10:55.656Z,8.40
2019-05-01T00:13:25.364Z,8.40
2019-05-01T00:15:55.461Z,8.40
2019-05-01T00:18:25.537Z,8.40
2019-05-01T00:20:55.227Z,8.30
2019-05-01T00:23:24.935Z,8.40
2019-05-01T00:25:54.598Z,8.40
2019-05-01T00:28:24.314Z,8.40
2019-05-01T00:30:54.029Z,8.40
2019-05-01T00:33:23.705Z,8.40
2019-05-01T00:35:53.438Z,8.40
2019-05-01T00:38:23.483Z,8.40
2019-05-01T00:40:53.149Z,8.50
2019-05-01T00:43:22.882Z,8.50
2019-05-01T00:45:52.613Z,8.50
2019-05-01T00:48:22.322Z,8.50
2019-05-01T00:50:52.013Z,8.50
2019-05-01T00:53:23.210Z,8.40
2019-05-01T00:56:16.332Z,8.40
2019-05-01T00:59:05.071Z,8.40
2019-05-01T01:02:02.756Z,8.40
2019-05-01T01:04:32.526Z,8.50
2019-05-01T01:07:02.211Z,8.50
2019-05-01T01:09:31.918Z,8.50
2019-05-01T01:12:01.633Z,8.50
2019-05-01T01:14:31.465Z,8.50
2019-05-01T01:17:01.179Z,8.50
2019-05-01T01:19:30.962Z,8.50
2019-05-01T01:22:00.680Z,8.50
2019-05-01T01:24:30.507Z,8.50
2019-05-01T01:27:00.780Z,8.50
2019-05-01T01:29:30.530Z,8.40
2019-05-01T01:32:00.322Z,8.50
2019-05-01T01:34:30.077Z,8.40
2019-05-01T01:36:59.878Z,8.40
2019-05-01T01:39:29.626Z,8.40
2019-05-01T01:41:59.549Z,8.40
2019-05-01T01:44:43.391Z,8.40
2019-05-01T01:47:13.232Z,8.40
2019-05-01T01:49:43.192Z,8.30
2019-05-01T01:52:13.652Z,8.30
2019-05-01T01:54:43.440Z,8.40
2019-05-01T01:57:13.715Z,8.40
2019-05-01T01:59:43.913Z,8.40
2019-05-01T02:02:21.486Z,8.40
2019-05-01T02:05:22.490Z,8.30
2019-05-01T02:07:53.039Z,8.30
2019-05-01T02:10:22.905Z,8.20
2019-05-01T02:12:52.955Z,8.10
2019-05-01T02:15:22.655Z,8.10
2019-05-01T02:17:52.507Z,8.00
2019-05-01T02:20:23.831Z,8.00
2019-05-01T02:22:53.547Z,8.00
2019-05-01T02:25:23.699Z,7.90
2019-05-01T02:28:11.946Z,7.80
2019-05-01T02:30:43.838Z,7.80
2019-05-01T02:33:14.574Z,7.70
2019-05-01T02:35:45.385Z,7.60
2019-05-01T02:38:17.213Z,7.60
2019-05-01T02:40:57.056Z,7.60
2019-05-01T02:43:29.720Z,7.60
2019-05-01T02:46:01.831Z,7.60
2019-05-01T02:48:35.429Z,7.60
2019-05-01T02:51:06.613Z,7.60
2019-05-01T02:53:39.241Z,7.60
2019-05-01T02:56:23.336Z,7.60
2019-05-01T02:58:55.799Z,7.60
2019-05-01T03:02:09.983Z,7.60
2019-05-01T03:04:40.505Z,7.60
2019-05-01T03:07:11.007Z,7.60
2019-05-01T03:09:41.942Z,7.60
2019-05-01T03:12:13.807Z,7.60
2019-05-01T03:14:46.606Z,7.50
2019-05-01T03:17:34.955Z,7.60
2019-05-01T03:20:21.970Z,7.60
2019-05-01T03:23:11.049Z,7.60
2019-05-01T03:25:40.813Z,7.50
2019-05-01T03:28:10.894Z,7.50
2019-05-01T03:30:40.689Z,7.50
2019-05-01T03:33:10.561Z,7.50
2019-05-01T03:35:41.002Z,7.40
2019-05-01T03:38:10.914Z,7.50
2019-05-01T03:40:41.727Z,7.50
2019-05-01T03:43:12.714Z,7.50
2019-05-01T03:45:43.630Z,7.50
2019-05-01T03:48:13.714Z,7.50
2019-05-01T03:50:46.867Z,7.50
2019-05-01T03:53:15.346Z,7.50
2019-05-01T03:55:45.285Z,7.50
2019-05-01T03:58:15.243Z,7.40
2019-05-01T04:01:03.997Z,7.40
2019-05-01T04:03:37.540Z,7.40
2019-05-01T04:06:07.500Z,7.30
2019-05-01T04:08:37.722Z,7.40
2019-05-01T04:11:07.577Z,7.40
2019-05-01T04:13:37.351Z,7.40
2019-05-01T04:16:07.640Z,7.40
2019-05-01T04:18:37.649Z,7.30
2019-05-01T04:21:09.171Z,7.30
2019-05-01T04:23:39.201Z,7.30
2019-05-01T04:26:09.154Z,7.30
2019-05-01T04:29:01.308Z,7.40
2019-05-01T04:31:36.540Z,7.40
2019-05-01T04:34:16.903Z,7.40
2019-05-01T04:36:50.168Z,7.40
2019-05-01T04:39:20.430Z,7.40
2019-05-01T04:41:53.362Z,7.40
2019-05-01T04:44:23.337Z,7.40
2019-05-01T04:46:53.625Z,7.40
2019-05-01T04:49:23.730Z,7.40
2019-05-01T04:51:53.602Z,7.50
2019-05-01T04:54:23.263Z,7.40
2019-05-01T04:56:53.084Z,7.40
2019-05-01T04:59:22.973Z,7.50
2019-05-01T05:01:57.217Z,7.50
2019-05-01T05:04:27.166Z,7.50
2019-05-01T05:06:58.934Z,7.50
2019-05-01T05:09:48.664Z,7.50
2019-05-01T05:12:40.716Z,7.50
2019-05-01T05:15:36.288Z,7.50
2019-05-01T05:18:08.723Z,7.50
2019-05-01T05:20:40.720Z,7.50
2019-05-01T05:23:10.867Z,7.50
2019-05-01T05:25:41.283Z,7.60
2019-05-01T05:28:11.674Z,7.60
2019-05-01T05:30:46.147Z,7.60
2019-05-01T05:33:18.969Z,7.60
2019-05-01T05:35:52.396Z,7.60
2019-05-01T05:38:57.960Z,7.70
2019-05-01T05:41:28.991Z,7.70
2019-05-01T05:43:58.887Z,7.80
2019-05-01T05:46:28.961Z,7.80
2019-05-01T05:48:58.695Z,7.80
2019-05-01T05:51:58.875Z,7.80
2019-05-01T05:55:01.557Z,7.80
2019-05-01T05:57:45.849Z,7.90
2019-05-01T06:00:34.725Z,7.90
2019-05-01T06:03:31.397Z,7.90
2019-05-01T06:06:18.272Z,8.00
2019-05-01T06:08:50.692Z,8.00
2019-05-01T06:11:38.309Z,8.00
2019-05-01T06:14:35.403Z,8.00
2019-05-01T06:17:28.391Z,8.10
2019-05-01T06:20:05.214Z,8.20
2019-05-01T06:22:54.019Z,8.20
2019-05-01T06:25:31.105Z,8.30
2019-05-01T06:28:01.025Z,8.30
2019-05-01T06:30:31.309Z,8.40
2019-05-01T06:33:04.115Z,8.40
2019-05-01T06:35:34.007Z,8.50
2019-05-01T06:38:11.635Z,8.60
2019-05-01T06:40:43.896Z,8.80
2019-05-01T06:43:30.648Z,8.80
2019-05-01T06:46:29.213Z,8.80
2019-05-01T06:49:11.996Z,8.80
2019-05-01T06:51:48.084Z,8.80
2019-05-01T06:54:19.179Z,8.90
2019-05-01T06:56:50.785Z,9.00
2019-05-01T06:59:21.218Z,9.10
2019-05-01T07:01:53.072Z,9.20
2019-05-01T07:04:23.995Z,9.20
2019-05-01T07:07:01.926Z,9.20
2019-05-01T07:09:31.049Z,9.20
2019-05-01T07:12:02.704Z,9.20
2019-05-01T07:14:32.836Z,9.20
2019-05-01T07:17:02.586Z,9.30
2019-05-01T07:19:50.738Z,9.40
2019-05-01T07:22:21.047Z,9.50
2019-05-01T07:24:51.000Z,9.60
2019-05-01T07:27:23.717Z,9.70
2019-05-01T07:29:54.999Z,9.90
2019-05-01T07:32:24.959Z,9.90
2019-05-01T07:34:56.935Z,10.00
2019-05-01T07:37:27.747Z,10.00
2019-05-01T07:39:57.785Z,10.00
2019-05-01T07:42:32.417Z,10.00
2019-05-01T07:45:26.561Z,10.00
2019-05-01T07:48:00.912Z,10.00
2019-05-01T07:50:31.910Z,10.00
2019-05-01T07:53:01.249Z,10.20
2019-05-01T07:55:37.895Z,10.20
2019-05-01T07:58:16.044Z,10.20
2019-05-01T08:00:59.325Z,10.20
2019-05-01T08:03:29.009Z,10.20
2019-05-01T08:05:58.744Z,10.20
2019-05-01T08:08:28.458Z,10.30
2019-05-01T08:10:59.839Z,10.40
2019-05-01T08:13:30.623Z,10.40
2019-05-01T08:16:02.007Z,10.40
2019-05-01T08:18:38.673Z,10.50
2019-05-01T08:21:26.202Z,10.70
2019-05-01T08:23:56.068Z,10.60
2019-05-01T08:26:25.700Z,10.80
2019-05-01T08:29:23.099Z,11.00
2019-05-01T08:32:13.532Z,11.00
2019-05-01T08:34:49.112Z,11.00
2019-05-01T08:37:17.755Z,11.00
2019-05-01T08:39:46.016Z,11.10
2019-05-01T08:42:15.755Z,11.20
2019-05-01T08:45:10.532Z,11.20
2019-05-01T08:47:42.392Z,11.20
2019-05-01T08:50:24.895Z,11.30
2019-05-01T08:52:53.741Z,11.30
2019-05-01T08:55:23.430Z,11.40
2019-05-01T08:57:53.195Z,11.50
2019-05-01T09:00:23.009Z,11.50
2019-05-01T09:02:52.735Z,11.50
2019-05-01T09:05:29.123Z,11.60
2019-05-01T09:07:55.956Z,11.70
2019-05-01T09:10:25.139Z,11.80
2019-05-01T09:12:54.784Z,11.90
2019-05-01T09:15:24.500Z,11.90
2019-05-01T09:17:54.129Z,11.90
2019-05-01T09:20:27.988Z,11.90
2019-05-01T09:22:57.622Z,11.90
2019-05-01T09:25:35.292Z,11.90
2019-05-01T09:28:18.734Z,11.90
2019-05-01T09:30:57.935Z,11.80
2019-05-01T09:33:26.168Z,11.90
2019-05-01T09:35:56.896Z,11.90
2019-05-01T09:38:26.808Z,12.00
2019-05-01T09:40:56.660Z,12.00
2019-05-01T09:43:26.451Z,12.10
2019-05-01T09:45:57.455Z,12.20
2019-05-01T09:48:27.224Z,12.10
2019-05-01T09:51:18.691Z,12.00
2019-05-01T09:54:00.242Z,12.10
2019-05-01T09:56:30.006Z,12.20
2019-05-01T09:58:59.568Z,12.30
2019-05-01T10:01:32.822Z,12.40
2019-05-01T10:04:00.614Z,12.40
2019-05-01T10:06:30.267Z,12.50
2019-05-01T10:08:59.868Z,12.60
2019-05-01T10:11:29.496Z,12.70
2019-05-01T10:13:59.732Z,12.80
2019-05-01T10:16:29.408Z,12.80
2019-05-01T10:18:59.259Z,13.00
2019-05-01T10:21:29.020Z,13.10
2019-05-01T10:23:58.801Z,13.10
2019-05-01T10:26:29.969Z,13.20
2019-05-01T10:29:25.908Z,13.20
2019-05-01T10:32:16.881Z,13.30
2019-05-01T10:35:02.696Z,13.40
2019-05-01T10:37:33.865Z,13.30
2019-05-01T10:40:04.038Z,13.30
2019-05-01T10:42:33.764Z,13.40
2019-05-01T10:45:03.458Z,13.50
2019-05-01T10:47:33.145Z,13.40
2019-05-01T10:50:02.840Z,13.40
2019-05-01T10:52:34.011Z,13.50
2019-05-01T10:55:03.820Z,13.60
2019-05-01T10:57:35.038Z,13.80
2019-05-01T11:00:06.153Z,13.80
2019-05-01T11:02:35.805Z,13.90
2019-05-01T11:05:06.199Z,13.90
2019-05-01T11:07:35.991Z,14.10
2019-05-01T11:10:06.504Z,14.30
2019-05-01T11:12:36.307Z,14.40
2019-05-01T11:15:06.931Z,14.40
2019-05-01T11:17:36.601Z,14.30
2019-05-01T11:20:07.195Z,14.30
2019-05-01T11:22:36.874Z,14.10
2019-05-01T11:25:07.205Z,14.10
2019-05-01T11:27:36.883Z,14.10
2019-05-01T11:30:07.417Z,14.20
2019-05-01T11:33:05.020Z,14.20
2019-05-01T11:36:08.983Z,14.30
2019-05-01T11:39:05.010Z,14.40
2019-05-01T11:41:44.596Z,14.50
2019-05-01T11:44:14.310Z,14.70
2019-05-01T11:46:43.975Z,14.60
2019-05-01T11:49:13.676Z,14.50
2019-05-01T11:51:43.380Z,14.70
2019-05-01T11:54:13.055Z,14.90
2019-05-01T11:56:42.668Z,14.90
2019-05-01T11:59:12.376Z,14.80
2019-05-01T12:01:42.104Z,14.80
2019-05-01T12:04:11.822Z,15.00
2019-05-01T12:06:41.640Z,15.20
2019-05-01T12:09:11.333Z,15.20
2019-05-01T12:11:42.674Z,15.20
2019-05-01T12:14:12.388Z,15.20
2019-05-01T12:17:13.179Z,15.20
2019-05-01T12:19:42.828Z,15.40
2019-05-01T12:22:12.497Z,15.60
2019-05-01T12:24:42.150Z,15.70
2019-05-01T12:27:11.807Z,15.90
2019-05-01T12:29:41.480Z,15.90
2019-05-01T12:32:11.152Z,15.80
2019-05-01T12:34:40.813Z,15.60
2019-05-01T12:37:24.399Z,15.50
2019-05-01T12:39:53.952Z,15.50
2019-05-01T12:42:24.692Z,15.50
2019-05-01T12:44:54.317Z,15.40
2019-05-01T12:47:52.171Z,15.40
2019-05-01T12:50:21.910Z,15.30
2019-05-01T12:53:13.694Z,15.30
2019-05-01T12:56:02.508Z,15.20
2019-05-01T12:58:32.157Z,15.10
2019-05-01T13:01:01.787Z,15.30
2019-05-01T13:03:31.476Z,15.50
2019-05-01T13:06:01.180Z,15.70
2019-05-01T13:08:30.888Z,15.90
2019-05-01T13:11:01.193Z,16.00
2019-05-01T13:13:30.905Z,15.90
2019-05-01T13:16:00.544Z,15.90
2019-05-01T13:18:30.252Z,15.90
2019-05-01T13:20:59.883Z,15.80
2019-05-01T13:23:29.608Z,15.60
2019-05-01T13:26:06.087Z,15.60
2019-05-01T13:28:58.786Z,15.60
2019-05-01T13:31:34.544Z,15.50
2019-05-01T13:34:04.367Z,15.50
2019-05-01T13:36:34.065Z,15.40
2019-05-01T13:39:03.747Z,15.30
2019-05-01T13:41:33.527Z,15.30
2019-05-01T13:44:03.234Z,15.20
2019-05-01T13:46:32.910Z,15.20
2019-05-01T13:49:02.678Z,15.20
2019-05-01T13:51:32.305Z,15.20
2019-05-01T13:54:01.984Z,15.20
2019-05-01T13:56:31.681Z,15.20
2019-05-01T13:59:01.332Z,15.20
2019-05-01T14:01:31.012Z,15.20
2019-05-01T14:04:00.684Z,15.20
2019-05-01T14:06:30.363Z,15.20
2019-05-01T14:09:06.373Z,15.10
2019-05-01T14:11:36.206Z,15.00
2019-05-01T14:14:05.864Z,14.90
2019-05-01T14:16:35.538Z,14.90
2019-05-01T14:19:05.189Z,14.80
2019-05-01T14:21:39.958Z,14.90
2019-05-01T14:24:46.620Z,14.80
2019-05-01T14:27:16.259Z,14.80
2019-05-01T14:29:47.878Z,14.90
2019-05-01T14:32:17.572Z,14.80
2019-05-01T14:34:47.262Z,14.90
2019-05-01T14:37:29.055Z,14.90
2019-05-01T14:39:48.583Z,14.90
2019-05-01T14:42:18.228Z,14.80
2019-05-01T14:44:50.613Z,14.70
2019-05-01T14:47:19.295Z,14.70
2019-05-01T14:49:51.362Z,14.70
2019-05-01T14:52:22.093Z,14.70
2019-05-01T14:54:52.403Z,14.60
2019-05-01T14:57:23.803Z,14.60
2019-05-01T14:59:53.847Z,14.60
2019-05-01T15:02:24.080Z,14.60
2019-05-01T15:04:54.808Z,14.70
2019-05-01T15:07:25.568Z,14.70
2019-05-01T15:09:56.240Z,14.80
2019-05-01T15:12:28.199Z,14.70
2019-05-01T15:15:17.547Z,14.70
2019-05-01T15:18:01.247Z,14.60
2019-05-01T15:20:32.439Z,14.60
2019-05-01T15:23:04.814Z,14.60
2019-05-01T15:25:34.977Z,14.60
2019-05-01T15:28:05.277Z,14.60
2019-05-01T15:30:35.659Z,14.70
2019-05-01T15:33:06.105Z,14.70
2019-05-01T15:35:38.204Z,14.60
2019-05-01T15:38:09.007Z,14.60
2019-05-01T15:40:45.557Z,14.60
2019-05-01T15:43:33.368Z,14.70
2019-05-01T15:46:04.104Z,14.60
2019-05-01T15:48:34.767Z,14.60
2019-05-01T15:51:06.076Z,14.60
2019-05-01T15:53:36.367Z,14.60
2019-05-01T15:56:07.745Z,14.70
2019-05-01T15:58:38.511Z,14.70
2019-05-01T16:01:09.262Z,14.80
2019-05-01T16:03:39.918Z,14.80
2019-05-01T16:06:11.528Z,14.70
2019-05-01T16:08:42.852Z,14.70
2019-05-01T16:11:44.210Z,14.60
2019-05-01T16:14:15.839Z,14.70
2019-05-01T16:16:46.568Z,14.70
2019-05-01T16:19:16.614Z,14.70
2019-05-01T16:21:46.247Z,14.70
2019-05-01T16:24:15.863Z,14.70
2019-05-01T16:26:47.593Z,14.70
2019-05-01T16:29:17.264Z,14.70
2019-05-01T16:31:47.039Z,14.60
2019-05-01T16:34:16.786Z,14.60
2019-05-01T16:36:46.481Z,14.60
2019-05-01T16:39:27.229Z,14.60
2019-05-01T16:41:57.918Z,14.60
2019-05-01T16:44:30.293Z,14.50
2019-05-01T16:47:02.973Z,14.50
2019-05-01T16:49:33.756Z,14.50
2019-05-01T16:52:03.487Z,14.60
2019-05-01T16:54:34.237Z,14.60
2019-05-01T16:57:04.343Z,14.60
2019-05-01T16:59:34.077Z,14.50
2019-05-01T17:02:12.275Z,14.60
2019-05-01T17:04:47.868Z,14.70
2019-05-01T17:07:42.770Z,14.70
2019-05-01T17:10:24.350Z,14.80
2019-05-01T17:12:55.292Z,15.00
2019-05-01T17:15:35.369Z,15.00
2019-05-01T17:18:05.332Z,15.10
2019-05-01T17:20:34.998Z,15.20
2019-05-01T17:23:05.717Z,15.20
2019-05-01T17:25:35.694Z,15.20
2019-05-01T17:28:08.355Z,15.20
2019-05-01T17:30:41.631Z,15.10
2019-05-01T17:33:19.452Z,15.20
2019-05-01T17:35:43.273Z,15.20
2019-05-01T17:38:13.105Z,15.30
2019-05-01T17:40:42.810Z,15.20
2019-05-01T17:43:13.559Z,15.20
2019-05-01T17:45:43.554Z,15.20
2019-05-01T17:48:13.304Z,15.10
2019-05-01T17:50:42.987Z,15.00
2019-05-01T17:53:12.692Z,14.90
2019-05-01T17:55:42.402Z,14.70
2019-05-01T17:58:12.095Z,14.60
2019-05-01T18:01:18.828Z,14.50
2019-05-01T18:04:10.535Z,14.40
2019-05-01T18:06:46.069Z,14.30
2019-05-01T18:09:15.574Z,14.20
2019-05-01T18:11:47.317Z,14.10
2019-05-01T18:14:16.647Z,14.10
2019-05-01T18:16:46.361Z,13.90
2019-05-01T18:19:16.105Z,13.70
2019-05-01T18:21:51.969Z,13.70
2019-05-01T18:24:58.460Z,13.50
2019-05-01T18:28:07.174Z,13.40
2019-05-01T18:30:39.290Z,13.20
2019-05-01T18:33:08.947Z,13.20
2019-05-01T18:35:38.728Z,13.10
2019-05-01T18:38:29.177Z,13.00
2019-05-01T18:41:04.224Z,12.90
2019-05-01T18:43:34.040Z,12.80
2019-05-01T18:46:08.013Z,12.70
2019-05-01T18:48:36.762Z,12.60
2019-05-01T18:51:06.393Z,12.50
2019-05-01T18:53:36.168Z,12.50
2019-05-01T18:56:06.948Z,12.50
2019-05-01T18:58:36.950Z,12.40
2019-05-01T19:01:09.552Z,12.40
2019-05-01T19:03:42.221Z,12.40
2019-05-01T19:06:09.347Z,12.40
2019-05-01T19:08:39.010Z,12.30
2019-05-01T19:11:12.645Z,12.20
2019-05-01T19:13:40.739Z,12.10
2019-05-01T19:16:10.620Z,12.00
2019-05-01T19:18:40.346Z,11.90
2019-05-01T19:21:10.306Z,11.90
2019-05-01T19:23:39.952Z,11.90
2019-05-01T19:26:10.750Z,12.00
2019-05-01T19:28:40.492Z,12.00
2019-05-01T19:31:10.185Z,12.10
2019-05-01T19:33:41.789Z,12.20
2019-05-01T19:36:11.200Z,12.20
2019-05-01T19:38:41.060Z,12.20
2019-05-01T19:41:14.121Z,12.10
2019-05-01T19:43:42.231Z,12.10
2019-05-01T19:46:12.028Z,12.00
2019-05-01T19:48:45.423Z,12.00
2019-05-01T19:51:13.179Z,12.00
2019-05-01T19:53:46.473Z,12.00
2019-05-01T19:56:16.710Z,12.00
2019-05-01T19:58:45.666Z,11.90
2019-05-01T20:01:15.448Z,12.00
2019-05-01T20:03:45.188Z,11.90
2019-05-01T20:06:15.133Z,12.00
2019-05-01T20:08:44.805Z,12.00
2019-05-01T20:11:14.492Z,12.00
2019-05-01T20:13:44.244Z,11.90
2019-05-01T20:16:15.544Z,11.80
2019-05-01T20:18:45.312Z,11.70
2019-05-01T20:21:15.004Z,11.70
2019-05-01T20:23:44.734Z,11.80
2019-05-01T20:26:14.471Z,11.70
2019-05-01T20:28:46.992Z,11.50
2019-05-01T20:31:17.901Z,11.40
2019-05-01T20:33:48.175Z,11.30
2019-05-01T20:36:17.893Z,11.20
2019-05-01T20:38:47.625Z,11.20
2019-05-01T20:41:18.080Z,11.10
2019-05-01T20:43:47.949Z,11.00
2019-05-01T20:46:21.465Z,11.00
2019-05-01T20:48:49.030Z,10.90
2019-05-01T20:51:20.266Z,10.90
2019-05-01T20:53:57.102Z,10.90
2019-05-01T20:57:00.731Z,10.90
2019-05-01T20:59:30.488Z,10.90
2019-05-01T21:02:07.734Z,10.80
2019-05-01T21:04:49.361Z,10.70
2019-05-01T21:07:43.967Z,10.80
2019-05-01T21:10:24.152Z,10.80
2019-05-01T21:12:45.147Z,10.70
2019-05-01T21:15:14.995Z,10.60
2019-05-01T21:17:49.228Z,10.50
2019-05-01T21:20:16.097Z,10.50
2019-05-01T21:22:45.784Z,10.50
2019-05-01T21:25:15.556Z,10.40
2019-05-01T21:27:45.243Z,10.30
2019-05-01T21:30:15.332Z,10.30
2019-05-01T21:32:45.048Z,10.00
2019-05-01T21:35:14.768Z,9.80
2019-05-01T21:37:44.411Z,9.70
2019-05-01T21:40:14.175Z,9.60
2019-05-01T21:42:47.341Z,9.40
2019-05-01T21:45:15.285Z,9.30
2019-05-01T21:47:44.976Z,9.20
2019-05-01T21:50:17.741Z,9.20
2019-05-01T21:52:46.581Z,9.20
2019-05-01T21:55:16.296Z,9.20
2019-05-01T21:57:50.069Z,9.20
2019-05-01T22:00:20.025Z,9.20
2019-05-01T22:02:49.185Z,9.10
2019-05-01T22:05:18.883Z,9.10
2019-05-01T22:07:48.603Z,9.10
2019-05-01T22:10:21.607Z,9.10
2019-05-01T22:12:50.878Z,9.20
2019-05-01T22:15:28.000Z,9.30
2019-05-01T22:18:19.696Z,9.30
2019-05-01T22:20:54.589Z,9.30
2019-05-01T22:23:25.389Z,9.30
2019-05-01T22:25:56.615Z,9.40
2019-05-01T22:28:44.045Z,9.40
2019-05-01T22:31:52.795Z,9.30
2019-05-01T22:34:44.756Z,9.30
2019-05-01T22:37:14.486Z,9.20
2019-05-01T22:39:46.523Z,9.10
2019-05-01T22:42:16.264Z,9.00
2019-05-01T22:44:45.959Z,8.90
2019-05-01T22:47:16.316Z,8.80
2019-05-01T22:49:45.948Z,8.80
2019-05-01T22:52:15.643Z,8.80
2019-05-01T22:54:48.937Z,8.80
2019-05-01T22:57:18.319Z,8.80
2019-05-01T22:59:48.042Z,8.70
2019-05-01T23:02:38.620Z,8.80
2019-05-01T23:05:08.825Z,8.70
2019-05-01T23:07:38.600Z,8.70
2019-05-01T23:10:10.096Z,8.60
2019-05-01T23:12:39.829Z,8.70
2019-05-01T23:15:15.058Z,8.70
2019-05-01T23:17:46.299Z,8.80
2019-05-01T23:20:16.740Z,8.80
2019-05-01T23:22:46.545Z,8.80
2019-05-01T23:25:16.382Z,8.80
2019-05-01T23:27:46.220Z,8.60
2019-05-01T23:30:18.263Z,8.60
2019-05-01T23:32:47.960Z,8.70
2019-05-01T23:35:17.677Z,8.60
2019-05-01T23:37:47.403Z,8.50
2019-05-01T23:40:17.222Z,8.40
2019-05-01T23:42:52.469Z,8.40
2019-05-01T23:45:18.584Z,8.40
2019-05-01T23:47:48.297Z,8.40
2019-05-01T23:50:18.208Z,8.40
2019-05-01T23:52:47.927Z,8.30
2019-05-01T23:55:17.641Z,8.30
2019-05-01T23:57:47.335Z,8.20
